»·PEaware :: AAL1456 KPHX-KSNA

AAL1456 :: KPHX-KSNA

FLIGHT INFORMATION

Flight Status: Arrived
Operator:
American Airlines
More flights by this operator :: More flights under this callsign
Pilot: Mike C. (16705)
Aircraft: BOEING 737-800
(B738)
More flights by this aircraft type
Origin: KPHX Phoenix Sky Harbor Intl
United States
Destination: KSNA John Wayne-Orange Co
United States
More flights between these airports :: More routes between these airports
Route: +IZZZO6 HRRBR EMLLD DSNEE2
File this flight plan on PilotEdge
Remarks: PBN / A1B1C1D1L1O1S1 NAV / RNVD1E2A1 DOF / 180108 REG / N838NN EET / KZLA0022 RVR / 200 PER / C
Altitude:
(Current/Filed)
340ft
Speed:
(Current/Filed)
453kts
Departed: 08-Jan-18 11:16 AM
Arrived: 08-Jan-18 12:18 PM
Distance/Time
Traveled:
293nm/1:02
Distance/Time
To Go:
Arrived

Flight Plot

Page will automatically refresh every two minutes.

Flight plan parsing failed; only flown route is shown


Map Options




Map Legend


Flown Route
Filed Route
Departure Airport
Arrival Airport
Navaid (VOR, NDB)
Fix

Horizontal Profiles

Position Reports

Time Latitude Longitude Heading Altitude Ground
Speed
08-Jan-18 10:44 33.437869 -111.998617 270 1143ft 0kts
08-Jan-18 10:45 33.437869 -111.998617 270 1143ft 0kts
08-Jan-18 10:46 33.437869 -111.998617 270 1143ft 0kts
08-Jan-18 10:47 33.437869 -111.998617 270 1143ft 0kts
08-Jan-18 10:48 33.437869 -111.998617 270 1143ft 0kts
08-Jan-18 10:49 33.437869 -111.998617 270 1143ft 0kts
08-Jan-18 10:50 33.437869 -111.998617 270 1143ft 0kts
08-Jan-18 10:51 33.437869 -111.998617 270 1143ft 0kts
08-Jan-18 10:52 33.437869 -111.998617 270 1143ft 0kts
08-Jan-18 10:53 33.437869 -111.998617 270 1143ft 0kts
08-Jan-18 10:54 33.437869 -111.998617 270 1143ft 0kts
08-Jan-18 10:55 33.437869 -111.998617 270 1143ft 0kts
08-Jan-18 10:56 33.437869 -111.998617 270 1143ft 0kts
08-Jan-18 10:57 33.437869 -111.998617 270 1143ft 0kts
08-Jan-18 10:58 33.437869 -111.998617 270 1143ft 0kts
08-Jan-18 10:59 33.437869 -111.998617 270 1143ft 0kts
08-Jan-18 11:00 33.437869 -111.998617 270 1143ft 0kts
08-Jan-18 11:01 33.437869 -111.998617 270 1143ft 0kts
08-Jan-18 11:02 33.437869 -111.998617 270 1143ft 0kts
08-Jan-18 11:03 33.437869 -111.998617 270 1143ft 0kts
08-Jan-18 11:04 33.437869 -111.998617 270 1143ft 0kts
08-Jan-18 11:05 33.437849 -111.998295 284 1143ft 2kts
08-Jan-18 11:06 33.437385 -111.997722 339 1143ft 0kts
08-Jan-18 11:07 33.437385 -111.997722 339 1143ft 0kts
08-Jan-18 11:08 33.438116 -111.997856 359 1143ft 6kts
08-Jan-18 11:09 33.438944 -111.999531 254 1143ft 3kts
08-Jan-18 11:10 33.438219 -112.000123 290 1143ft 0kts
08-Jan-18 11:11 33.438219 -112.000125 290 1143ft 0kts
08-Jan-18 11:12 33.438900 -112.001072 298 1143ft 3kts
08-Jan-18 11:13 33.438908 -112.004568 269 1143ft 12kts
08-Jan-18 11:14 33.438904 -112.008890 266 1143ft 17kts
08-Jan-18 11:15 33.438965 -112.015722 269 1143ft 20kts
08-Jan-18 11:16 33.438947 -112.021510 270 1143ft 17kts
08-Jan-18 11:17 33.438966 -112.025962 270 1143ft 6kts
08-Jan-18 11:18 33.438980 -112.028515 270 1143ft 12kts
08-Jan-18 11:19 33.439442 -112.029660 350 1143ft 0kts
08-Jan-18 11:20 33.439963 -112.029704 357 1143ft 3kts
08-Jan-18 11:21 33.440875 -112.029158 78 1143ft 0kts
08-Jan-18 11:22 33.440866 -112.013443 89 1144ft 152kts
08-Jan-18 11:23 33.441196 -111.955723 88 2740ft 195kts
08-Jan-18 11:24 33.433913 -111.881548 118 5333ft 234kts
08-Jan-18 11:25 33.379871 -111.847989 196 8623ft 238kts
08-Jan-18 11:26 33.352970 -111.913951 276 12095ft 246kts
08-Jan-18 11:27 33.366118 -112.000968 276 14067ft 300kts
08-Jan-18 11:28 33.381919 -112.110758 275 15544ft 358kts
08-Jan-18 11:29 33.398787 -112.230426 275 18120ft 370kts
08-Jan-18 11:30 33.416321 -112.353698 274 20417ft 382kts
08-Jan-18 11:31 33.433851 -112.481297 274 22443ft 393kts
08-Jan-18 11:32 33.450294 -112.612137 269 24197ft 400kts
08-Jan-18 11:33 33.452142 -112.746098 266 25856ft 406kts
08-Jan-18 11:34 33.468020 -112.882353 277 27371ft 419kts
08-Jan-18 11:35 33.493628 -113.019660 277 28697ft 426kts
08-Jan-18 11:36 33.519464 -113.158435 277 30348ft 422kts
08-Jan-18 11:37 33.544684 -113.293795 276 32160ft 412kts
08-Jan-18 11:38 33.568761 -113.425973 276 33925ft 401kts
08-Jan-18 11:39 33.593026 -113.557629 276 34114ft 401kts
08-Jan-18 11:40 33.617258 -113.687578 275 34112ft 399kts
08-Jan-18 11:41 33.641171 -113.817471 275 34117ft 398kts
08-Jan-18 11:42 33.680614 -113.944204 286 34112ft 410kts
08-Jan-18 11:43 33.728290 -114.068464 286 34105ft 410kts
08-Jan-18 11:44 33.762927 -114.196535 272 34102ft 396kts
08-Jan-18 11:45 33.778874 -114.327244 271 34098ft 395kts
08-Jan-18 11:46 33.794091 -114.458278 271 34096ft 396kts
08-Jan-18 11:47 33.809588 -114.590102 271 34094ft 398kts
08-Jan-18 11:48 33.824694 -114.721859 270 34093ft 398kts
08-Jan-18 11:49 33.839458 -114.854043 270 34093ft 400kts
08-Jan-18 11:50 33.854260 -114.987116 270 34095ft 401kts
08-Jan-18 11:51 33.868879 -115.120252 269 34097ft 402kts
08-Jan-18 11:52 33.883449 -115.254280 269 34103ft 404kts
08-Jan-18 11:53 33.898467 -115.388261 268 34105ft 404kts
08-Jan-18 11:54 33.912826 -115.522586 268 34107ft 405kts
08-Jan-18 11:55 33.913863 -115.532386 268 34107ft 405kts
08-Jan-18 11:56 33.923923 -115.627550 268 34109ft 405kts
08-Jan-18 11:57 33.934259 -115.761303 265 32744ft 396kts
08-Jan-18 11:58 33.943542 -115.891486 265 30809ft 382kts
08-Jan-18 11:59 33.952227 -116.016776 265 29006ft 369kts
08-Jan-18 12:00 33.960454 -116.138587 266 27241ft 359kts
08-Jan-18 12:01 33.958429 -116.255490 254 25508ft 342kts
08-Jan-18 12:02 33.944311 -116.368885 255 23782ft 352kts
08-Jan-18 12:03 33.929733 -116.486447 255 21994ft 351kts
08-Jan-18 12:04 33.915243 -116.601333 255 20061ft 347kts
08-Jan-18 12:05 33.900471 -116.715227 255 17897ft 335kts
08-Jan-18 12:06 33.887816 -116.823448 257 16219ft 321kts
08-Jan-18 12:07 33.876600 -116.926052 256 14821ft 294kts
08-Jan-18 12:08 33.866276 -117.019363 256 13561ft 268kts
08-Jan-18 12:09 33.856991 -117.104418 256 12460ft 247kts
08-Jan-18 12:10 33.848271 -117.183152 256 11435ft 227kts
08-Jan-18 12:11 33.840178 -117.254796 255 10527ft 208kts
08-Jan-18 12:12 33.831987 -117.326646 256 8912ft 227kts
08-Jan-18 12:13 33.823645 -117.399543 256 8031ft 209kts
08-Jan-18 12:14 33.812719 -117.466554 245 8050ft 204kts
08-Jan-18 12:15 33.803135 -117.532894 271 8058ft 213kts
08-Jan-18 12:16 33.811024 -117.604643 271 7201ft 211kts
08-Jan-18 12:17 33.836816 -117.663781 301 6148ft 201kts
08-Jan-18 12:18 33.868585 -117.716877 287 4922ft 190kts
08-Jan-18 12:19 33.842211 -117.763955 204 3552ft 181kts
08-Jan-18 12:20 33.796971 -117.791902 205 2571ft 182kts
08-Jan-18 12:21 33.753170 -117.819697 208 1626ft 165kts
08-Jan-18 12:22 33.716035 -117.842920 204 792ft 142kts
08-Jan-18 12:23 33.681558 -117.865004 207 124ft 144kts
08-Jan-18 12:24 33.667731 -117.873202 134 64ft 0kts
08-Jan-18 12:25 33.667593 -117.872955 110 64ft 0kts
08-Jan-18 12:26 33.668534 -117.871501 40 64ft 20kts
08-Jan-18 12:27 33.671426 -117.868545 39 64ft 11kts
08-Jan-18 12:28 33.675144 -117.865824 28 64ft 18kts
08-Jan-18 12:29 33.679126 -117.863308 26 64ft 15kts
08-Jan-18 12:30 33.680898 -117.861767 129 64ft 2kts
08-Jan-18 12:31 33.680703 -117.861522 138 64ft 0kts
08-Jan-18 12:32 33.680703 -117.861522 138 64ft 0kts

Navigation Log

Ident Type
Flight plan parsing failed, navigation log unavailable